Nearby METAR Reports

 

KDLS - The Dalles, Oregon, USA
Distance from station: NNE 2mi, 3km
Updated: Wed, 20-Oct-2021 8:53am PDT
Mostly cloudy
Mostly cloudy
 Wind from NW
Wind: NW 8 mph , 13 km/h
Temperature: 55°F , 13°C
Dew Point: 46°F , 8°C
Humidity: 72%
Barometer: 29.85 inHg , 1010.8 hPa
Clouds: Mostly cloudy
Visibility: 10 miles , 16 km
Cloud details: Mostly cloudy 6500 ft
Mostly cloudy 8500 ft
2021/10/20 15:53 KDLS 201553Z AUTO 32007KT 10SM BKN065 BKN085 13/08 A2985 RMK AO2 SLP108 T01330083
KTTD - Troutdale, Oregon, USA
Distance from station: W 60mi, 96km
Updated: Wed, 20-Oct-2021 8:53am PDT
Mostly cloudy
Mostly cloudy
 Wind from varies
Wind: varies 7 mph , 11 km/h
Temperature: 57°F , 14°C
Dew Point: 46°F , 8°C
Humidity: 67%
Barometer: 29.87 inHg , 1011.5 hPa
Clouds: Mostly cloudy
Visibility: 10 miles , 16 km
Cloud details: Mostly cloudy 6000 ft
Mostly cloudy 7500 ft
2021/10/20 15:53 KTTD 201553Z VRB06KT 10SM BKN060 BKN075 14/08 A2987 RMK AO2 SLP116 T01390078
 
KPDX - Portland, Oregon, USA
Distance from station: W 69mi, 111km
Updated: Wed, 20-Oct-2021 8:53am PDT
Mostly cloudy
Mostly cloudy
 Wind from S
Wind: S 9 mph , 15 km/h
Temperature: 55°F , 13°C
Dew Point: 46°F , 8°C
Humidity: 72%
Barometer: 29.86 inHg , 1011.2 hPa
Clouds: Mostly cloudy
Visibility: 10 miles , 16 km
Cloud details: Mostly cloudy 6000 ft
Mostly cloudy 7500 ft
Mostly cloudy 11000 ft
2021/10/20 15:53 KPDX 201553Z 17008KT 10SM BKN060 BKN075 BKN110 13/08 A2986 RMK AO2 SLP111 T01280083
KVUO - Vancouver, Washington, USA
Distance from station: W 71mi, 114km
Updated: Wed, 20-Oct-2021 8:53am PDT
Overcast
Overcast
 Wind from SSE
Wind: SSE 8 mph , 13 km/h
Temperature: 55°F , 13°C
Dew Point: 48°F , 9°C
Humidity: 77%
Barometer: 29.86 inHg , 1011.2 hPa
Clouds: Overcast
Visibility: 10 miles , 16 km
Cloud details: Mostly cloudy 6000 ft
Overcast 7500 ft
2021/10/20 15:53 KVUO 201553Z AUTO 16007KT 10SM BKN060 OVC075 13/09 A2986 RMK AO2 SLP112 T01280089
 
KYKM - Yakima, Washington, USA
Distance from station: NNE 74mi, 120km
Updated: Wed, 20-Oct-2021 8:53am PDT
Mostly cloudy
Mostly cloudy
 Wind from WSW
Wind: WSW 6 mph , 9 km/h
Temperature: 46°F , 8°C
Wind Chill: 43°F , 6°C
Dew Point: 46°F , 8°C
Humidity: 100%
Barometer: 29.81 inHg , 1009.5 hPa
Clouds: Mostly cloudy
Visibility: 9 miles , 14 km
Cloud details: Partly cloudy 5500 ft
Mostly cloudy 9000 ft
2021/10/20 15:53 KYKM 201553Z 25005KT 9SM SCT055 BKN090 08/08 A2981 RMK AO2 RAE1456 SLP100 P0001 T00830083 $
KUAO - Aurora, Oregon, USA
Distance from station: WSW 80mi, 129km
Updated: Wed, 20-Oct-2021 8:53am PDT
Overcast
Overcast
 Wind from S
Wind: S 17 mph , 28 km/h, Gust: 24 mph , 39 km/h
Temperature: 55°F , 13°C
Dew Point: 50°F , 10°C
Humidity: 82%
Barometer: 29.87 inHg , 1011.5 hPa
Clouds: Overcast
Visibility: 10 miles , 16 km
Cloud details: Mostly cloudy 3800 ft
Mostly cloudy 4700 ft
Overcast 6000 ft
2021/10/20 15:53 KUAO 201553Z 19015G21KT 10SM BKN038 BKN047 OVC060 13/10 A2987 RMK AO2 SLP113 T01280100
 
KSPB - Scappoose, Oregon, USA
Distance from station: W 82mi, 132km
Updated: Wed, 20-Oct-2021 9:08am PDT
Light rain, Mist, Overcast
Light rain, Mist, Overcast
 Wind from S
Wind: S 6 mph , 9 km/h
Temperature: 54°F , 12°C
Dew Point: 50°F , 10°C
Humidity: 88%
Barometer: 29.85 inHg , 1010.8 hPa
Summary: Light rain, Mist
Clouds: Overcast
Visibility: 6 miles , 10 km
Cloud details: Partly cloudy 3500 ft
Mostly cloudy 4400 ft
Overcast 6500 ft
2021/10/20 16:08 KSPB 201608Z AUTO 18005KT 6SM -RA BR SCT035 BKN044 OVC065 12/10 A2985 RMK AO2 P0002 T01170100
KHIO - Hillsboro/Portld, Oregon, USA
Distance from station: W 85mi, 137km
Updated: Wed, 20-Oct-2021 8:53am PDT
Light rain, Mist, Mostly cloudy
Light rain, Mist, Mostly cloudy
 Wind from SSW
Wind: SSW 9 mph , 15 km/h
Temperature: 52°F , 11°C
Dew Point: 48°F , 9°C
Humidity: 88%
Barometer: 29.85 inHg , 1010.8 hPa
Summary: Light rain, Mist
Clouds: Mostly cloudy
Visibility: 6 miles , 10 km
Cloud details: Mostly cloudy 2500 ft
Mostly cloudy 4000 ft
2021/10/20 15:53 KHIO 201553Z 20008KT 6SM -RA BR BKN025 BKN040 11/09 A2985 RMK AO2 RAB51 SLP109 P0000 T01110089
 
KKLS - Kelso Longveiw, Washington, USA
Distance from station: WNW 90mi, 145km
Updated: Wed, 20-Oct-2021 8:56am PDT
Overcast
Overcast
 Wind from SSE
Wind: SSE 15 mph , 24 km/h, Gust: 22 mph , 35 km/h
Temperature: 54°F , 12°C
Dew Point: 48°F , 9°C
Humidity: 82%
Barometer: 29.83 inHg , 1010.2 hPa
Clouds: Overcast
Visibility: 10 miles , 16 km
Cloud details: Partly cloudy 1700 ft
Mostly cloudy 5000 ft
Overcast 6500 ft
2021/10/20 15:56 KKLS 201556Z AUTO 15013G19KT 10SM SCT017 BKN050 OVC065 12/09 A2983 RMK AO2 RAE29 SLP105 P0001 T01170094
KRDM - Redmond, Oregon, USA
Distance from station: S 93mi, 149km
Updated: Wed, 20-Oct-2021 8:56am PDT
Clear
Clear
 Wind from S
Wind: S 12 mph , 19 km/h
Temperature: 48°F , 9°C
Wind Chill: 43°F , 6°C
Dew Point: 36°F , 2°C
Humidity: 62%
Barometer: 29.91 inHg , 1012.9 hPa
Clouds: Clear
Visibility: 10 miles , 16 km
2021/10/20 15:56 KRDM 201556Z 18010KT 10SM CLR 09/02 A2991 RMK AO2 SLP121 T00940022
 
KHRI - Hermiston, Oregon, USA
Distance from station: E 94mi, 151km
Updated: Wed, 20-Oct-2021 8:53am PDT
Overcast
Overcast
 Wind from calm
Wind: Calm
Temperature: 54°F , 12°C
Dew Point: 48°F , 9°C
Humidity: 82%
Barometer: 29.83 inHg , 1010.2 hPa
Clouds: Overcast
Visibility: 10 miles , 16 km
Cloud details: Mostly cloudy 9500 ft
Overcast 11000 ft
2021/10/20 15:53 KHRI 201553Z AUTO 00000KT 10SM BKN095 OVC110 12/09 A2983 RMK AO2 SLP100 T01220094
KMMV - Mcminnville, Oregon, USA
Distance from station: WSW 98mi, 158km
Updated: Wed, 20-Oct-2021 8:53am PDT
Mostly cloudy
Mostly cloudy
 Wind from S
Wind: S 14 mph , 22 km/h
Temperature: 54°F , 12°C
Dew Point: 48°F , 9°C
Humidity: 82%
Barometer: 29.86 inHg , 1011.2 hPa
Clouds: Mostly cloudy
Visibility: 10 miles , 16 km
Cloud details: Partly cloudy 5000 ft
Mostly cloudy 6000 ft
2021/10/20 15:53 KMMV 201553Z AUTO 17012KT 10SM SCT050 BKN060 12/09 A2986 RMK AO2 SLPNO T01170089 $
 
KSLE - Salem, Oregon, USA
Distance from station: WSW 100mi, 161km
Updated: Wed, 20-Oct-2021 8:56am PDT
Light rain, Overcast
Light rain, Overcast
 Wind from S
Wind: S 16 mph , 26 km/h, Gust: 23 mph , 37 km/h
Temperature: 55°F , 13°C
Dew Point: 46°F , 8°C
Humidity: 72%
Barometer: 29.87 inHg , 1011.5 hPa
Summary: Light rain
Clouds: Overcast
Visibility: 10 miles , 16 km
Cloud details: Partly cloudy 4100 ft
Mostly cloudy 5000 ft
Overcast 7500 ft
2021/10/20 15:56 KSLE 201556Z 18014G20KT 10SM -RA SCT041 BKN050 OVC075 13/08 A2987 RMK AO2 RAB07 SLP114 P0000 T01280083
KBDN - Bend, Oregon, USA
Distance from station: S 103mi, 166km
Updated: Wed, 20-Oct-2021 8:55am PDT
Clear
Clear
 Wind from SSW
Wind: SSW 14 mph , 22 km/h
Temperature: 46°F , 8°C
Wind Chill: 40°F , 4°C
Dew Point: 36°F , 2°C
Humidity: 66%
Barometer: 29.94 inHg , 1013.9 hPa
Clouds: Clear
Visibility: 10 miles , 16 km
2021/10/20 15:55 KBDN 201555Z AUTO 21012KT 10SM CLR 08/02 A2994 RMK AO2
 
KELN - Ellensburg, Washington, USA
Distance from station: NNE 104mi, 168km
Updated: Wed, 20-Oct-2021 8:53am PDT
Overcast
Overcast
 Wind from E
Wind: E 10 mph , 17 km/h
Temperature: 54°F , 12°C
Dew Point: 43°F , 6°C
Humidity: 67%
Barometer: 29.79 inHg , 1008.8 hPa
Clouds: Overcast
Visibility: 10 miles , 16 km
Cloud details: Overcast 9500 ft
2021/10/20 15:53 KELN 201553Z AUTO 09009KT 10SM OVC095 12/06 A2979 RMK AO2 SLP089 T01170056
KPSC - Pasco, Washington, USA
Distance from station: ENE 110mi, 177km
Updated: Wed, 20-Oct-2021 8:53am PDT
Overcast
Overcast
 Wind from SE
Wind: SE 3 mph , 6 km/h
Temperature: 54°F , 12°C
Dew Point: 46°F , 8°C
Humidity: 77%
Barometer: 29.83 inHg , 1010.2 hPa
Clouds: Overcast
Visibility: 10 miles , 16 km
Cloud details: Overcast 11000 ft
2021/10/20 15:53 KPSC 201553Z 14003KT 10SM OVC110 12/08 A2983 RMK AO2 SLP100 T01170078
 
KPDT - Pendleton, Oregon, USA
Distance from station: E 114mi, 183km
Updated: Wed, 20-Oct-2021 8:53am PDT
Mostly cloudy
Mostly cloudy
 Wind from SSW
Wind: SSW 17 mph , 28 km/h, Gust: 31 mph , 50 km/h
Temperature: 61°F , 16°C
Dew Point: 39°F , 4°C
Humidity: 45%
Barometer: 29.84 inHg , 1010.5 hPa
Clouds: Mostly cloudy
Visibility: 10 miles , 16 km
Cloud details: Mostly cloudy 10000 ft
Mostly cloudy 12000 ft
2021/10/20 15:53 KPDT 201553Z 20015G27KT 10SM BKN100 BKN120 16/04 A2984 RMK AO2 PK WND 19030/1540 SLP097 T01610044
KCLS - Chehalis Central, Washington, USA
Distance from station: NW 115mi, 184km
Updated: Wed, 20-Oct-2021 9:15am PDT
Mostly cloudy
Mostly cloudy
 Wind from S
Wind: S 15 mph , 24 km/h
Temperature: 52°F , 11°C
Dew Point: 52°F , 11°C
Humidity: 100%
Barometer: 29.80 inHg , 1009.1 hPa
Clouds: Mostly cloudy
Visibility: 10 miles , 16 km
Cloud details: Mostly cloudy 3700 ft
Mostly cloudy 4800 ft
Mostly cloudy 6500 ft
2021/10/20 16:15 KCLS 201615Z AUTO 17013KT 10SM BKN037 BKN048 BKN065 11/11 A2980 RMK AO2
 
KPLU - Puyallup/Thun, Washington, USA
Distance from station: NNW 117mi, 188km
Updated: Wed, 20-Oct-2021 8:55am PDT
Light drizzle, Overcast
Light drizzle, Overcast
 Wind from varies
Wind: varies 7 mph , 11 km/h, Gust: 13 mph , 20 km/h
Temperature: 54°F , 12°C
Dew Point: 50°F , 10°C
Humidity: 88%
Barometer: 29.77 inHg , 1008.1 hPa
Summary: Light Drizzle
Clouds: Overcast
Visibility: 3 miles , 5 km
Cloud details: Partly cloudy 3300 ft
Mostly cloudy 5000 ft
Overcast 6500 ft
2021/10/20 15:55 KPLU 201555Z AUTO VRB06G11KT 3SM -DZ SCT033 BKN050 OVC065 12/10 A2977 RMK AO2
KCVO - Corvallis Muni A, Oregon, USA
Distance from station: WNW 167mi, 269km
Updated: Wed, 20-Oct-2021 8:56am PDT
Mostly cloudy
Mostly cloudy
 Wind from S
Wind: S 14 mph , 22 km/h
Temperature: 54°F , 12°C
Dew Point: 48°F , 9°C
Humidity: 82%
Barometer: 29.89 inHg , 1012.2 hPa
Clouds: Mostly cloudy
Visibility: 10 miles , 16 km
Cloud details: Partly cloudy 4600 ft
Mostly cloudy 6000 ft
2021/10/20 15:56 KCVO 201556Z AUTO 17012KT 10SM SCT046 BKN060 12/09 A2989 RMK AO2 RAB34E47 SLP123 P0000 T01170089
 
KEUG - Eugene, Oregon, USA
Distance from station: W 193mi, 310km
Updated: Wed, 20-Oct-2021 8:54am PDT
Mostly cloudy
Mostly cloudy
 Wind from S
Wind: S 12 mph , 19 km/h
Temperature: 54°F , 12°C
Dew Point: 48°F , 9°C
Humidity: 82%
Barometer: 29.91 inHg , 1012.9 hPa
Clouds: Mostly cloudy
Visibility: 10 miles , 16 km
Cloud details: Mostly cloudy 3500 ft
Mostly cloudy 4400 ft
2021/10/20 15:54 KEUG 201554Z 19010KT 10SM BKN035 BKN044 12/09 A2991 RMK AO2 RAB03E13 SLP129 P0000 T01170089
KRBG - Roseburg, Oregon, USA
Distance from station: WSW 196mi, 315km
Updated: Wed, 20-Oct-2021 8:53am PDT
Mostly cloudy
Mostly cloudy
 Wind from calm
Wind: Calm
Temperature: 50°F , 10°C
Dew Point: 48°F , 9°C
Humidity: 94%
Barometer: 29.93 inHg , 1013.5 hPa
Clouds: Mostly cloudy
Visibility: 10 miles , 16 km
Cloud details: Mostly cloudy 6000 ft
2021/10/20 15:53 KRBG 201553Z AUTO 00000KT 10SM BKN060 10/09 A2993 RMK AO2 RAE03 SLP135 P0000 T01000089
 
KLKV - Lakeview, Oregon, USA
Distance from station: SSE 239mi, 385km
Updated: Wed, 20-Oct-2021 8:53am PDT
Overcast
Overcast
 Wind from S
Wind: S 16 mph , 26 km/h
Temperature: 43°F , 6°C
Wind Chill: 35°F , 2°C
Dew Point: 36°F , 2°C
Humidity: 76%
Barometer: 30.03 inHg , 1016.9 hPa
Clouds: Overcast
Visibility: 10 miles , 16 km
Cloud details: Overcast 2600 ft
2021/10/20 15:53 KLKV 201553Z AUTO 18014KT 10SM OVC026 06/02 A3003 RMK AO2 RAE19 SLP174 P0000 T00560022
KMFR - Medford, Oregon, USA
Distance from station: WSW 241mi, 388km
Updated: Wed, 20-Oct-2021 8:53am PDT
Light rain, Overcast
Light rain, Overcast
 Wind from calm
Wind: Calm
Temperature: 48°F , 9°C
Dew Point: 46°F , 8°C
Humidity: 94%
Barometer: 29.96 inHg , 1014.6 hPa
Summary: Light rain
Clouds: Overcast
Visibility: 10 miles , 16 km
Cloud details: Overcast 6000 ft
2021/10/20 15:53 KMFR 201553Z 00000KT 10SM -RA OVC060 09/08 A2996 RMK AO2 RAB18 SLP145 P0000 T00890083
 
KBNO - Burns, Oregon, USA
Distance from station: ESE 249mi, 280km
Updated: Wed, 20-Oct-2021 8:53am PDT
Few Clouds
Few Clouds
 Wind from S
Wind: S 12 mph , 19 km/h
Temperature: 50°F , 10°C
Wind Chill: 45°F , 7°C
Dew Point: 36°F , 2°C
Humidity: 58%
Barometer: 30.00 inHg , 1015.9 hPa
Clouds: Few Clouds
Visibility: 10 miles , 16 km
Cloud details: Few Clouds 6000 ft
2021/10/20 15:53 KBNO 201553Z AUTO 19010KT 10SM FEW060 10/02 A3000 RMK AO2 SLP150 T01000022
KLMT - Klamath Falls, Oregon, USA
Distance from station: SSW 266mi, 428km
Updated: Wed, 20-Oct-2021 8:53am PDT
Mostly cloudy
Mostly cloudy
 Wind from S
Wind: S 13 mph , 20 km/h
Temperature: 45°F , 7°C
Wind Chill: 39°F , 4°C
Dew Point: 36°F , 2°C
Humidity: 71%
Barometer: 29.98 inHg , 1015.2 hPa
Clouds: Mostly cloudy
Visibility: 10 miles , 16 km
Cloud details: Partly cloudy 4100 ft
Mostly cloudy 6000 ft
2021/10/20 15:53 KLMT 201553Z 18011KT 10SM SCT041 BKN060 07/02 A2998 RMK AO2 SLP143 T00720017